Silverstone, United Kingdom
Current Conditions -  °F | °C
As of 10:20 PM on Tuesday 21 Oct 2014 (Local Time) from EGTK Reporting Station
Clear Clear  
Wind Chill: 40°   Ceiling: Unl
Heat Index: 46°   Visibility: 6mi
Dew Point: 36°   Wind: 14mph
Humidity: 66%   Direction: 290°WNW
Pressure: 30.12"   Gusts: NA
Location:  52.09°N, 1.03°W
Report Text: EGTK 212120Z 29012KT CAVOK 08/02 Q1020
Loading
Personal Weather Stations






























Interactive Weather Map New forecast layout! Learn more

10-Day Weather Forecast

Advertisements
Track Severe Weather on mobile